createdAt,value
2019-03-03T00:01:11.814Z,93.70
2019-03-03T00:03:41.607Z,93.70
2019-03-03T00:06:11.359Z,93.50
2019-03-03T00:08:41.134Z,93.70
2019-03-03T00:11:10.880Z,93.70
2019-03-03T00:13:40.620Z,93.70
2019-03-03T00:16:10.350Z,93.80
2019-03-03T00:18:40.087Z,93.80
2019-03-03T00:21:11.426Z,94.10
2019-03-03T00:23:42.726Z,93.60
2019-03-03T00:26:13.895Z,93.50
2019-03-03T00:28:43.638Z,93.60
2019-03-03T00:31:16.214Z,93.70
2019-03-03T00:33:45.959Z,93.80
2019-03-03T00:36:15.691Z,93.70
2019-03-03T00:38:55.837Z,93.60
2019-03-03T00:41:37.196Z,93.90
2019-03-03T00:44:11.243Z,93.60
2019-03-03T00:46:45.470Z,93.50
2019-03-03T00:49:22.978Z,93.40
2019-03-03T00:51:57.186Z,93.50
2019-03-03T00:54:28.486Z,93.30
2019-03-03T00:57:05.339Z,93.30
2019-03-03T00:59:42.669Z,93.20
2019-03-03T01:02:14.021Z,93.10
2019-03-03T01:04:51.061Z,92.90
2019-03-03T01:07:25.601Z,93.00
2019-03-03T01:09:59.679Z,93.00
2019-03-03T01:12:31.031Z,92.90
2019-03-03T01:15:02.342Z,92.90
2019-03-03T01:17:42.518Z,92.80
2019-03-03T01:20:16.514Z,92.80
2019-03-03T01:23:05.542Z,92.80
2019-03-03T01:25:35.278Z,92.90
2019-03-03T01:28:05.018Z,92.90
2019-03-03T01:30:34.812Z,93.00
2019-03-03T01:33:04.549Z,93.00
2019-03-03T01:35:34.285Z,93.10
2019-03-03T01:38:04.058Z,93.10
2019-03-03T01:40:33.798Z,93.30
2019-03-03T01:43:03.533Z,93.20
2019-03-03T01:45:33.322Z,93.20
2019-03-03T01:48:03.069Z,93.10
2019-03-03T01:50:32.793Z,93.10
2019-03-03T01:53:02.582Z,93.10
2019-03-03T01:55:32.313Z,93.20
2019-03-03T01:58:02.037Z,93.10
2019-03-03T02:00:31.810Z,93.10
2019-03-03T02:03:01.573Z,93.10
2019-03-03T02:05:32.787Z,93.10
2019-03-03T02:08:03.638Z,93.10
2019-03-03T02:10:33.615Z,93.10
2019-03-03T02:13:04.436Z,93.00
2019-03-03T02:15:34.198Z,93.10
2019-03-03T02:18:04.052Z,93.20
2019-03-03T02:20:33.831Z,93.10
2019-03-03T02:23:03.568Z,93.00
2019-03-03T02:25:33.309Z,93.00
2019-03-03T02:28:03.063Z,93.00
2019-03-03T02:30:32.804Z,92.90
2019-03-03T02:33:02.595Z,92.90
2019-03-03T02:35:32.316Z,92.90
2019-03-03T02:38:02.095Z,92.90
2019-03-03T02:40:31.829Z,92.90
2019-03-03T02:43:01.577Z,92.90
2019-03-03T02:45:32.114Z,92.90
2019-03-03T02:48:01.846Z,92.90
2019-03-03T02:50:31.628Z,93.00
2019-03-03T02:53:01.350Z,93.10
2019-03-03T02:55:31.131Z,93.00
2019-03-03T02:58:00.873Z,93.10
2019-03-03T03:00:30.613Z,93.10
2019-03-03T03:03:01.934Z,93.10
2019-03-03T03:05:49.867Z,93.00
2019-03-03T03:08:24.051Z,93.00
2019-03-03T03:10:55.410Z,93.00
2019-03-03T03:13:42.804Z,93.10
2019-03-03T03:16:17.139Z,93.10
2019-03-03T03:18:48.465Z,93.10
2019-03-03T03:21:19.800Z,93.10
2019-03-03T03:23:57.093Z,93.10
2019-03-03T03:26:34.211Z,93.00
2019-03-03T03:29:21.750Z,93.00
2019-03-03T03:31:53.111Z,93.00
2019-03-03T03:34:27.293Z,92.90
2019-03-03T03:37:15.069Z,93.00
2019-03-03T03:39:49.342Z,92.80
2019-03-03T03:42:26.410Z,92.80
2019-03-03T03:45:09.679Z,92.70
2019-03-03T03:47:52.844Z,92.60
2019-03-03T03:50:24.151Z,92.50
2019-03-03T03:53:01.079Z,92.40
2019-03-03T03:55:32.587Z,92.30
2019-03-03T03:58:20.541Z,92.40
2019-03-03T04:01:09.858Z,92.30
2019-03-03T04:03:46.963Z,92.30
2019-03-03T04:06:21.025Z,92.40
2019-03-03T04:08:52.376Z,92.40
2019-03-03T04:11:40.242Z,92.30
2019-03-03T04:14:17.715Z,92.40
2019-03-03T04:16:49.015Z,92.40
2019-03-03T04:19:23.074Z,92.30
2019-03-03T04:22:04.209Z,92.30
2019-03-03T04:24:41.298Z,92.40
2019-03-03T04:27:18.134Z,92.30
2019-03-03T04:29:55.304Z,92.20
2019-03-03T04:32:35.513Z,92.40
2019-03-03T04:35:08.150Z,92.40
2019-03-03T04:37:45.382Z,92.40
2019-03-03T04:40:19.527Z,92.60
2019-03-03T04:42:59.530Z,92.70
2019-03-03T04:45:36.847Z,92.70
2019-03-03T04:48:08.929Z,92.70
2019-03-03T04:50:43.242Z,92.70
2019-03-03T04:53:17.520Z,92.60
2019-03-03T04:56:05.282Z,92.50
2019-03-03T04:58:39.528Z,92.50
2019-03-03T05:01:27.070Z,92.50
2019-03-03T05:04:01.153Z,92.50
2019-03-03T05:06:41.774Z,92.40
2019-03-03T05:09:29.719Z,92.40
2019-03-03T05:12:25.015Z,92.50
2019-03-03T05:14:59.524Z,92.60
2019-03-03T05:17:43.170Z,92.70
2019-03-03T05:20:14.481Z,92.70
2019-03-03T05:22:44.254Z,92.80
2019-03-03T05:25:13.999Z,92.90
2019-03-03T05:27:43.736Z,92.90
2019-03-03T05:30:14.886Z,92.90
2019-03-03T05:32:44.618Z,93.00
2019-03-03T05:35:14.725Z,93.00
2019-03-03T05:37:44.758Z,92.90
2019-03-03T05:40:14.490Z,93.30
2019-03-03T05:42:44.281Z,92.90
2019-03-03T05:45:14.021Z,93.00
2019-03-03T05:47:43.746Z,93.00
2019-03-03T05:50:13.511Z,92.80
2019-03-03T05:52:43.229Z,92.80
2019-03-03T05:55:13.018Z,92.70
2019-03-03T05:57:42.767Z,92.70
2019-03-03T06:00:13.855Z,92.60
2019-03-03T06:02:43.587Z,92.70
2019-03-03T06:05:13.313Z,92.60
2019-03-03T06:07:43.042Z,92.70
2019-03-03T06:10:12.762Z,92.60
2019-03-03T06:12:42.540Z,92.70
2019-03-03T06:15:14.381Z,92.50
2019-03-03T06:17:45.350Z,92.50
2019-03-03T06:20:16.494Z,92.30
2019-03-03T06:22:46.425Z,92.50
2019-03-03T06:25:16.158Z,92.50
2019-03-03T06:27:45.943Z,92.50
2019-03-03T06:30:16.282Z,92.60
2019-03-03T06:32:46.058Z,92.60
2019-03-03T06:35:15.807Z,92.60
2019-03-03T06:37:45.555Z,92.80
2019-03-03T06:40:15.594Z,92.90
2019-03-03T06:42:45.322Z,92.90
2019-03-03T06:45:15.230Z,93.10
2019-03-03T06:47:44.954Z,93.10
2019-03-03T06:50:16.402Z,93.10
2019-03-03T06:52:46.146Z,93.00
2019-03-03T06:55:15.914Z,93.20
2019-03-03T06:57:45.655Z,93.00
2019-03-03T07:00:16.940Z,93.20
2019-03-03T07:02:46.674Z,93.20
2019-03-03T07:05:16.408Z,93.20
2019-03-03T07:07:46.133Z,93.40
2019-03-03T07:10:16.866Z,93.50
2019-03-03T07:12:46.630Z,93.80
2019-03-03T07:15:17.258Z,94.00
2019-03-03T07:17:47.033Z,93.90
2019-03-03T07:20:16.773Z,94.00
2019-03-03T07:22:46.517Z,93.90
2019-03-03T07:25:16.259Z,94.10
2019-03-03T07:27:46.026Z,94.10
2019-03-03T07:30:16.466Z,94.10
2019-03-03T07:32:47.809Z,94.40
2019-03-03T07:35:17.537Z,94.60
2019-03-03T07:37:47.270Z,94.70
2019-03-03T07:40:17.014Z,95.00
2019-03-03T07:42:46.742Z,95.20
2019-03-03T07:45:19.058Z,95.60
2019-03-03T07:47:48.806Z,95.80
2019-03-03T07:50:18.554Z,96.20
2019-03-03T07:52:48.277Z,96.50
2019-03-03T07:55:18.027Z,96.90
2019-03-03T07:57:47.893Z,97.20
2019-03-03T08:00:17.689Z,97.30
2019-03-03T08:02:47.370Z,97.50
2019-03-03T08:05:17.102Z,97.90
2019-03-03T08:07:46.898Z,98.10
2019-03-03T08:10:16.735Z,98.40
2019-03-03T08:12:46.474Z,98.40
2019-03-03T08:15:18.261Z,98.00
2019-03-03T08:17:48.002Z,98.20
2019-03-03T08:20:18.497Z,97.90
2019-03-03T08:22:48.237Z,98.10
2019-03-03T08:25:18.023Z,98.20
2019-03-03T08:27:47.745Z,98.00
2019-03-03T08:30:18.618Z,98.10
2019-03-03T08:32:48.343Z,98.20
2019-03-03T08:35:31.965Z,98.00
2019-03-03T08:38:01.715Z,98.10
2019-03-03T08:40:31.460Z,97.70
2019-03-03T08:43:05.523Z,97.60
2019-03-03T08:45:36.861Z,97.90
2019-03-03T08:48:10.859Z,97.50
2019-03-03T08:50:49.030Z,97.50
2019-03-03T08:53:29.523Z,97.40
2019-03-03T08:56:06.806Z,97.40
2019-03-03T08:58:44.004Z,97.20
2019-03-03T09:01:31.738Z,96.80
2019-03-03T09:04:06.066Z,97.00
2019-03-03T09:06:40.422Z,96.60
2019-03-03T09:09:13.721Z,96.70
2019-03-03T09:11:45.074Z,96.40
2019-03-03T09:14:34.740Z,96.50
2019-03-03T09:17:07.090Z,96.30
2019-03-03T09:19:44.493Z,96.30
2019-03-03T09:22:15.833Z,95.50
2019-03-03T09:24:53.144Z,94.90
2019-03-03T09:27:30.293Z,94.50
2019-03-03T09:30:17.958Z,93.90
2019-03-03T09:33:05.826Z,93.70
2019-03-03T09:35:37.994Z,92.20
2019-03-03T09:38:12.056Z,91.40
2019-03-03T09:40:58.642Z,91.90
2019-03-03T09:43:32.749Z,92.20
2019-03-03T09:46:19.353Z,91.80
2019-03-03T09:48:53.829Z,92.50
2019-03-03T09:51:25.134Z,92.10
2019-03-03T09:53:56.478Z,91.80
2019-03-03T09:56:36.553Z,91.70
2019-03-03T09:59:08.040Z,91.40
2019-03-03T10:01:48.864Z,90.40
2019-03-03T10:04:36.386Z,89.90
2019-03-03T10:07:07.701Z,90.20
2019-03-03T10:09:39.076Z,89.00
2019-03-03T10:12:10.385Z,88.90
2019-03-03T10:14:41.744Z,86.60
2019-03-03T10:17:22.258Z,84.20
2019-03-03T10:20:03.067Z,84.00
2019-03-03T10:22:35.719Z,82.60
2019-03-03T10:25:10.242Z,81.30
2019-03-03T10:27:41.550Z,79.50
2019-03-03T10:30:26.403Z,78.80
2019-03-03T10:33:03.742Z,78.00
2019-03-03T10:35:38.047Z,74.00
2019-03-03T10:38:12.088Z,72.90
2019-03-03T10:40:43.435Z,73.80
2019-03-03T10:43:20.862Z,74.20
2019-03-03T10:46:10.091Z,71.50
2019-03-03T10:48:55.013Z,71.60
2019-03-03T10:51:26.365Z,70.10
2019-03-03T10:54:11.618Z,69.20
2019-03-03T10:56:45.977Z,69.10
2019-03-03T10:59:23.308Z,68.80
2019-03-03T11:02:03.289Z,67.20
2019-03-03T11:04:50.578Z,67.40
2019-03-03T11:07:21.925Z,65.70
2019-03-03T11:10:05.741Z,65.00
2019-03-03T11:12:40.021Z,63.70
2019-03-03T11:15:33.849Z,64.60
2019-03-03T11:18:05.212Z,62.60
2019-03-03T11:20:42.261Z,63.20
2019-03-03T11:23:19.403Z,63.50
2019-03-03T11:25:53.669Z,62.90
2019-03-03T11:28:27.703Z,62.80
2019-03-03T11:30:59.298Z,62.90
2019-03-03T11:33:42.655Z,63.90
2019-03-03T11:36:19.978Z,65.60
2019-03-03T11:39:09.562Z,65.00
2019-03-03T11:41:57.453Z,64.50
2019-03-03T11:44:37.770Z,64.50
2019-03-03T11:47:09.082Z,62.40
2019-03-03T11:49:58.714Z,62.30
2019-03-03T11:52:36.655Z,62.60
2019-03-03T11:55:12.284Z,61.70
2019-03-03T11:57:48.253Z,62.10
2019-03-03T12:00:19.993Z,63.30
2019-03-03T12:02:56.775Z,62.90
2019-03-03T12:05:31.575Z,64.10
2019-03-03T12:08:02.878Z,64.00
2019-03-03T12:10:34.264Z,62.60
2019-03-03T12:13:05.525Z,63.00
2019-03-03T12:15:39.827Z,62.90
2019-03-03T12:18:17.176Z,63.30
2019-03-03T12:20:54.614Z,63.60
2019-03-03T12:23:43.923Z,63.00
2019-03-03T12:26:18.206Z,63.00
2019-03-03T12:28:58.551Z,63.00
2019-03-03T12:31:50.775Z,62.30
2019-03-03T12:34:38.378Z,62.50
2019-03-03T12:37:09.742Z,61.10
2019-03-03T12:39:47.275Z,61.00
2019-03-03T12:42:24.558Z,60.60
2019-03-03T12:45:04.986Z,61.10
2019-03-03T12:47:52.539Z,61.50
2019-03-03T12:50:41.935Z,62.00
2019-03-03T12:53:18.925Z,62.10
2019-03-03T12:55:56.414Z,62.40
2019-03-03T12:58:39.619Z,63.50
2019-03-03T13:01:13.905Z,63.50
2019-03-03T13:03:48.050Z,64.30
2019-03-03T13:06:25.387Z,63.30
2019-03-03T13:09:00.051Z,64.00
2019-03-03T13:11:47.543Z,64.10
2019-03-03T13:14:28.102Z,64.20
2019-03-03T13:17:15.610Z,64.10
2019-03-03T13:19:46.947Z,61.40
2019-03-03T13:22:18.262Z,60.10
2019-03-03T13:25:04.698Z,60.50
2019-03-03T13:27:52.441Z,59.90
2019-03-03T13:30:29.836Z,59.00
2019-03-03T13:33:16.433Z,58.60
2019-03-03T13:36:04.186Z,58.40
2019-03-03T13:38:50.806Z,57.40
2019-03-03T13:41:27.926Z,57.50
2019-03-03T13:43:57.654Z,57.70
2019-03-03T13:46:27.483Z,59.00
2019-03-03T13:48:57.226Z,59.10
2019-03-03T13:51:27.276Z,59.20
2019-03-03T13:53:57.398Z,59.00
2019-03-03T13:56:27.171Z,59.40
2019-03-03T13:58:56.998Z,59.20
2019-03-03T14:01:26.739Z,59.80
2019-03-03T14:03:56.478Z,59.40
2019-03-03T14:06:26.312Z,59.40
2019-03-03T14:08:56.062Z,59.10
2019-03-03T14:11:29.088Z,58.00
2019-03-03T14:13:58.850Z,57.70
2019-03-03T14:16:28.584Z,57.20
2019-03-03T14:18:58.309Z,57.90
2019-03-03T14:21:28.048Z,57.70
2019-03-03T14:23:57.766Z,57.30
2019-03-03T14:26:27.543Z,56.40
2019-03-03T14:28:57.278Z,56.20
2019-03-03T14:31:27.046Z,56.30
2019-03-03T14:33:56.783Z,56.50
2019-03-03T14:36:26.549Z,57.10
2019-03-03T14:38:56.286Z,57.20
2019-03-03T14:41:27.011Z,57.30
2019-03-03T14:43:56.777Z,57.50
2019-03-03T14:46:26.503Z,57.40
2019-03-03T14:48:56.277Z,57.30
2019-03-03T14:51:26.007Z,57.80
2019-03-03T14:53:55.738Z,58.20
2019-03-03T14:56:25.473Z,58.90
2019-03-03T14:58:55.198Z,59.10
2019-03-03T15:01:24.966Z,59.50
2019-03-03T15:03:54.689Z,60.10
2019-03-03T15:06:24.870Z,60.30
2019-03-03T15:08:54.690Z,60.60
2019-03-03T15:11:24.417Z,61.00
2019-03-03T15:13:54.146Z,61.00
2019-03-03T15:16:23.925Z,61.40
2019-03-03T15:18:53.656Z,62.00
2019-03-03T15:21:25.347Z,62.50
2019-03-03T15:23:54.782Z,62.30
2019-03-03T15:26:24.513Z,62.80
2019-03-03T15:28:54.247Z,62.70
2019-03-03T15:31:25.039Z,63.00
2019-03-03T15:33:54.761Z,63.10
2019-03-03T15:36:24.494Z,63.40
2019-03-03T15:38:55.262Z,63.40
2019-03-03T15:41:24.982Z,63.60
2019-03-03T15:43:54.708Z,63.60
2019-03-03T15:46:26.142Z,63.90
2019-03-03T15:48:56.021Z,64.80
2019-03-03T15:51:25.757Z,64.10
2019-03-03T15:53:55.638Z,64.50
2019-03-03T15:56:25.379Z,64.50
2019-03-03T15:58:55.821Z,64.90
2019-03-03T16:01:25.781Z,65.20
2019-03-03T16:03:55.550Z,65.50
2019-03-03T16:06:25.285Z,65.40
2019-03-03T16:08:55.165Z,65.70
2019-03-03T16:11:24.886Z,65.80
2019-03-03T16:13:54.618Z,65.80
2019-03-03T16:16:24.371Z,66.40
2019-03-03T16:18:55.396Z,66.50
2019-03-03T16:21:25.182Z,66.90
2019-03-03T16:23:54.903Z,66.70
2019-03-03T16:26:24.664Z,66.50
2019-03-03T16:28:54.387Z,66.50
2019-03-03T16:31:24.135Z,66.70
2019-03-03T16:33:54.902Z,66.60
2019-03-03T16:36:24.630Z,66.90
2019-03-03T16:38:54.359Z,66.90
2019-03-03T16:41:25.255Z,67.00
2019-03-03T16:43:55.321Z,67.20
2019-03-03T16:46:25.206Z,67.70
2019-03-03T16:48:54.988Z,68.10
2019-03-03T16:51:24.709Z,68.20
2019-03-03T16:53:54.452Z,68.30
2019-03-03T16:56:24.302Z,68.60
2019-03-03T16:58:54.035Z,68.80
2019-03-03T17:01:23.934Z,68.70
2019-03-03T17:03:53.806Z,68.80
2019-03-03T17:06:23.534Z,68.90
2019-03-03T17:08:53.265Z,68.90
2019-03-03T17:11:25.035Z,69.10
2019-03-03T17:13:56.358Z,68.60
2019-03-03T17:16:26.267Z,69.90
2019-03-03T17:18:57.558Z,68.70
2019-03-03T17:21:27.331Z,68.30
2019-03-03T17:23:57.082Z,68.50
2019-03-03T17:26:26.880Z,68.60
2019-03-03T17:28:56.630Z,68.60
2019-03-03T17:31:26.376Z,68.30
2019-03-03T17:33:56.395Z,68.60
2019-03-03T17:36:26.139Z,68.30
2019-03-03T17:38:55.962Z,68.00
2019-03-03T17:41:26.682Z,67.80
2019-03-03T17:43:57.280Z,68.00
2019-03-03T17:46:27.030Z,67.90
2019-03-03T17:48:56.771Z,67.90
2019-03-03T17:51:26.505Z,68.00
2019-03-03T17:53:56.235Z,68.20
2019-03-03T17:56:26.110Z,68.30
2019-03-03T17:58:55.851Z,68.40
2019-03-03T18:01:25.599Z,68.40
2019-03-03T18:03:57.786Z,68.80
2019-03-03T18:06:27.578Z,68.80
2019-03-03T18:08:57.338Z,68.90
2019-03-03T18:11:27.126Z,68.90
2019-03-03T18:13:56.862Z,69.20
2019-03-03T18:16:26.599Z,69.00
2019-03-03T18:18:56.343Z,69.40
2019-03-03T18:21:26.173Z,69.30
2019-03-03T18:23:56.090Z,69.20
2019-03-03T18:26:25.839Z,69.30
2019-03-03T18:28:56.620Z,69.40
2019-03-03T18:31:26.364Z,70.10
2019-03-03T18:33:56.136Z,69.10
2019-03-03T18:36:25.862Z,69.40
2019-03-03T18:38:55.606Z,69.30
2019-03-03T18:41:25.373Z,69.40
2019-03-03T18:43:55.298Z,69.60
2019-03-03T18:46:25.042Z,69.70
2019-03-03T18:48:54.814Z,69.90
2019-03-03T18:51:24.555Z,69.70
2019-03-03T18:53:54.304Z,69.50
2019-03-03T18:56:25.146Z,69.50
2019-03-03T18:58:54.902Z,69.80
2019-03-03T19:01:24.799Z,69.80
2019-03-03T19:03:54.539Z,70.10
2019-03-03T19:06:24.309Z,70.10
2019-03-03T19:08:54.155Z,70.60
2019-03-03T19:11:23.893Z,70.40
2019-03-03T19:13:53.679Z,70.50
2019-03-03T19:16:23.437Z,70.70
2019-03-03T19:18:53.330Z,70.80
2019-03-03T19:21:23.131Z,71.00
2019-03-03T19:23:52.898Z,71.30
2019-03-03T19:26:22.703Z,71.30
2019-03-03T19:28:52.434Z,71.30
2019-03-03T19:31:22.564Z,71.70
2019-03-03T19:33:54.584Z,72.00
2019-03-03T19:36:24.324Z,73.00
2019-03-03T19:38:54.184Z,73.50
2019-03-03T19:41:23.920Z,74.30
2019-03-03T19:43:57.769Z,75.30
2019-03-03T19:46:28.314Z,75.10
2019-03-03T19:49:06.489Z,75.50
2019-03-03T19:51:36.918Z,76.30
2019-03-03T19:54:06.789Z,76.50
2019-03-03T19:56:36.699Z,77.40
2019-03-03T19:59:06.683Z,77.90
2019-03-03T20:01:36.398Z,78.60
2019-03-03T20:04:07.122Z,79.40
2019-03-03T20:06:36.931Z,78.90
2019-03-03T20:09:07.585Z,79.10
2019-03-03T20:11:38.958Z,78.50
2019-03-03T20:14:09.770Z,78.50
2019-03-03T20:16:39.550Z,78.70
2019-03-03T20:19:09.327Z,78.00
2019-03-03T20:21:39.237Z,77.70
2019-03-03T20:24:08.973Z,77.80
2019-03-03T20:26:38.706Z,77.50
2019-03-03T20:29:10.969Z,77.50
2019-03-03T20:31:40.407Z,77.00
2019-03-03T20:34:12.082Z,76.60
2019-03-03T20:36:41.840Z,76.60
2019-03-03T20:39:12.274Z,76.40
2019-03-03T20:41:42.110Z,76.20
2019-03-03T20:44:11.899Z,75.80
2019-03-03T20:46:41.626Z,75.30
2019-03-03T20:49:11.370Z,75.40
2019-03-03T20:51:41.128Z,75.60
2019-03-03T20:54:10.874Z,75.60
2019-03-03T20:56:40.774Z,75.50
2019-03-03T20:59:11.314Z,75.40
2019-03-03T21:01:41.093Z,75.90
2019-03-03T21:04:10.827Z,76.30
2019-03-03T21:06:40.585Z,76.90
2019-03-03T21:09:10.828Z,77.50
2019-03-03T21:11:42.163Z,78.00
2019-03-03T21:14:11.931Z,78.10
2019-03-03T21:16:41.671Z,78.20
2019-03-03T21:19:11.403Z,78.40
2019-03-03T21:21:41.130Z,78.60
2019-03-03T21:24:10.897Z,78.50
2019-03-03T21:26:40.618Z,78.80
2019-03-03T21:29:10.365Z,78.60
2019-03-03T21:31:40.099Z,78.60
2019-03-03T21:34:09.867Z,78.50
2019-03-03T21:36:39.598Z,78.40
2019-03-03T21:39:09.445Z,78.60
2019-03-03T21:41:40.781Z,78.20
2019-03-03T21:44:10.510Z,78.50
2019-03-03T21:46:40.330Z,77.80
2019-03-03T21:49:10.054Z,77.80
2019-03-03T21:51:39.826Z,77.70
2019-03-03T21:54:09.558Z,77.50
2019-03-03T21:56:39.291Z,78.10
2019-03-03T21:59:09.034Z,77.80
2019-03-03T22:01:38.786Z,78.00
2019-03-03T22:04:08.521Z,77.70
2019-03-03T22:06:38.258Z,77.60
2019-03-03T22:09:09.842Z,77.60
2019-03-03T22:11:41.130Z,77.00
2019-03-03T22:14:10.899Z,77.10
2019-03-03T22:16:40.620Z,77.10
2019-03-03T22:19:10.367Z,76.60
2019-03-03T22:21:40.098Z,76.80
2019-03-03T22:24:09.828Z,76.80
2019-03-03T22:26:39.704Z,76.30
2019-03-03T22:29:09.433Z,76.60
2019-03-03T22:31:39.199Z,76.00
2019-03-03T22:34:09.223Z,76.00
2019-03-03T22:36:39.142Z,76.00
2019-03-03T22:39:09.171Z,75.80
2019-03-03T22:41:39.455Z,75.80
2019-03-03T22:44:09.182Z,75.40
2019-03-03T22:46:38.946Z,75.00
2019-03-03T22:49:08.675Z,75.10
2019-03-03T22:51:38.433Z,74.80
2019-03-03T22:54:08.533Z,74.80
2019-03-03T22:56:38.262Z,74.80
2019-03-03T22:59:08.040Z,75.10
2019-03-03T23:01:38.177Z,74.70
2019-03-03T23:04:10.981Z,74.90
2019-03-03T23:06:46.361Z,75.60
2019-03-03T23:09:21.930Z,74.80
2019-03-03T23:12:03.544Z,74.50
2019-03-03T23:14:36.266Z,74.90
2019-03-03T23:17:14.967Z,75.20
2019-03-03T23:19:56.742Z,75.00
2019-03-03T23:22:35.246Z,75.20
2019-03-03T23:25:14.075Z,75.10
2019-03-03T23:27:43.804Z,75.00
2019-03-03T23:30:13.574Z,75.20
2019-03-03T23:32:43.303Z,75.30
2019-03-03T23:35:13.076Z,75.50
2019-03-03T23:37:42.797Z,75.30
2019-03-03T23:40:12.531Z,75.20
2019-03-03T23:42:42.264Z,74.90
2019-03-03T23:45:12.093Z,74.70
2019-03-03T23:47:41.869Z,74.90
2019-03-03T23:50:11.586Z,75.00
2019-03-03T23:52:41.318Z,75.20
2019-03-03T23:55:12.732Z,75.00
2019-03-03T23:57:42.490Z,74.70
